createdAt,value
2022-09-15T00:00:31.498Z,0.00
2022-09-15T00:01:31.932Z,0.00
2022-09-15T00:02:31.748Z,0.00
2022-09-15T00:03:31.439Z,0.00
2022-09-15T00:04:31.432Z,0.00
2022-09-15T00:05:31.432Z,0.00
2022-09-15T00:06:31.421Z,0.00
2022-09-15T00:07:31.404Z,0.00
2022-09-15T00:08:31.389Z,0.00
2022-09-15T00:09:31.400Z,0.00
2022-09-15T00:10:31.403Z,0.00
2022-09-15T00:11:31.349Z,0.00
2022-09-15T00:12:31.342Z,0.00
2022-09-15T00:13:31.329Z,0.00
2022-09-15T00:14:31.356Z,0.00
2022-09-15T00:15:31.304Z,0.00
2022-09-15T00:16:31.385Z,0.00
2022-09-15T00:17:31.281Z,0.00
2022-09-15T00:18:31.271Z,0.00
2022-09-15T00:19:31.280Z,0.00
2022-09-15T00:20:31.253Z,0.00
2022-09-15T00:21:31.256Z,0.00
2022-09-15T00:22:31.227Z,0.00
2022-09-15T00:23:31.219Z,0.00
2022-09-15T00:24:31.203Z,0.00
2022-09-15T00:25:31.231Z,0.00
2022-09-15T00:26:31.184Z,0.00
2022-09-15T00:27:31.176Z,0.00
2022-09-15T00:28:31.159Z,0.00
2022-09-15T00:29:31.152Z,0.00
2022-09-15T00:30:31.202Z,0.00
2022-09-15T00:31:34.221Z,0.00
2022-09-15T00:32:31.124Z,0.00
2022-09-15T00:33:31.106Z,0.00
2022-09-15T00:34:31.087Z,0.00
2022-09-15T00:35:31.080Z,0.00
2022-09-15T00:36:31.093Z,0.00
2022-09-15T00:37:31.065Z,0.00
2022-09-15T00:38:31.057Z,0.00
2022-09-15T00:39:31.058Z,0.00
2022-09-15T00:40:31.109Z,0.00
2022-09-15T00:41:31.112Z,0.00
2022-09-15T00:42:31.001Z,0.00
2022-09-15T00:43:30.996Z,0.00
2022-09-15T00:44:30.978Z,0.00
2022-09-15T00:45:31.021Z,0.00
2022-09-15T00:46:34.466Z,0.00
2022-09-15T00:47:30.949Z,0.00
2022-09-15T00:48:30.938Z,0.00
2022-09-15T00:49:30.926Z,0.00
2022-09-15T00:50:30.986Z,0.00
2022-09-15T00:51:30.910Z,0.00
2022-09-15T00:52:30.891Z,0.00
2022-09-15T00:53:30.878Z,0.00
2022-09-15T00:54:30.866Z,0.00
2022-09-15T00:55:30.855Z,0.00
2022-09-15T00:56:30.866Z,0.00
2022-09-15T00:57:30.850Z,0.00
2022-09-15T00:58:30.816Z,0.00
2022-09-15T00:59:30.808Z,0.00
2022-09-15T01:00:30.797Z,0.00
2022-09-15T01:01:30.908Z,0.00
2022-09-15T01:02:30.840Z,0.00
2022-09-15T01:03:31.299Z,0.00
2022-09-15T01:04:30.749Z,0.00
2022-09-15T01:05:30.743Z,0.00
2022-09-15T01:06:30.746Z,0.00
2022-09-15T01:07:30.718Z,0.00
2022-09-15T01:08:30.703Z,0.00
2022-09-15T01:09:30.693Z,0.00
2022-09-15T01:10:30.691Z,0.00
2022-09-15T01:11:30.715Z,0.00
2022-09-15T01:12:30.656Z,0.00
2022-09-15T01:13:30.664Z,0.00
2022-09-15T01:14:30.637Z,0.00
2022-09-15T01:15:30.621Z,0.00
2022-09-15T01:16:30.653Z,0.00
2022-09-15T01:17:30.619Z,0.00
2022-09-15T01:18:31.299Z,0.00
2022-09-15T01:19:30.579Z,0.00
2022-09-15T01:20:30.567Z,0.00
2022-09-15T01:21:30.554Z,0.00
2022-09-15T01:22:33.045Z,0.00
2022-09-15T01:23:30.537Z,0.00
2022-09-15T01:24:30.516Z,0.00
2022-09-15T01:25:30.503Z,0.00
2022-09-15T01:26:30.493Z,0.00
2022-09-15T01:27:41.994Z,0.00
2022-09-15T01:28:31.468Z,0.00
2022-09-15T01:29:30.481Z,0.00
2022-09-15T01:30:30.449Z,0.00
2022-09-15T01:31:30.508Z,0.00
2022-09-15T01:32:30.451Z,0.00
2022-09-15T01:33:30.464Z,0.00
2022-09-15T01:34:30.405Z,0.00
2022-09-15T01:35:30.391Z,0.00
2022-09-15T01:36:30.382Z,0.00
2022-09-15T01:37:30.829Z,0.00
2022-09-15T01:38:30.360Z,0.00
2022-09-15T01:39:30.349Z,0.00
2022-09-15T01:40:30.417Z,0.00
2022-09-15T01:41:30.322Z,0.00
2022-09-15T01:42:30.330Z,0.00
2022-09-15T01:43:30.322Z,0.00
2022-09-15T01:44:30.290Z,0.00
2022-09-15T01:45:30.420Z,0.00
2022-09-15T01:46:30.263Z,0.00
2022-09-15T01:47:30.259Z,0.00
2022-09-15T01:48:30.241Z,0.00
2022-09-15T01:49:30.230Z,0.00
2022-09-15T01:50:30.805Z,0.00
2022-09-15T01:51:30.207Z,0.00
2022-09-15T01:52:30.211Z,0.00
2022-09-15T01:53:30.188Z,0.00
2022-09-15T01:54:30.198Z,0.00
2022-09-15T01:55:30.163Z,0.00
2022-09-15T01:56:30.152Z,0.00
2022-09-15T01:57:30.158Z,0.00
2022-09-15T01:58:30.156Z,0.00
2022-09-15T01:59:30.118Z,0.00
2022-09-15T02:00:30.108Z,0.00
2022-09-15T02:01:30.147Z,0.00
2022-09-15T02:02:30.162Z,0.00
2022-09-15T02:03:30.089Z,0.00
2022-09-15T02:04:30.060Z,0.00
2022-09-15T02:05:30.053Z,0.00
2022-09-15T02:06:30.042Z,0.00
2022-09-15T02:07:30.029Z,0.00
2022-09-15T02:08:30.033Z,0.00
2022-09-15T02:09:30.082Z,0.00
2022-09-15T02:10:30.000Z,0.00
2022-09-15T02:11:29.988Z,0.00
2022-09-15T02:12:29.976Z,0.00
2022-09-15T02:13:29.983Z,0.00
2022-09-15T02:14:29.950Z,0.00
2022-09-15T02:15:29.946Z,0.00
2022-09-15T02:16:29.987Z,0.00
2022-09-15T02:17:29.939Z,0.00
2022-09-15T02:18:29.917Z,0.00
2022-09-15T02:19:29.899Z,0.00
2022-09-15T02:20:29.890Z,0.00
2022-09-15T02:21:29.902Z,0.00
2022-09-15T02:22:30.121Z,0.00
2022-09-15T02:23:29.871Z,0.00
2022-09-15T02:24:29.846Z,0.00
2022-09-15T02:25:29.838Z,0.00
2022-09-15T02:26:30.013Z,0.00
2022-09-15T02:27:34.156Z,0.00
2022-09-15T02:28:29.803Z,0.00
2022-09-15T02:29:29.788Z,0.00
2022-09-15T02:30:29.779Z,0.00
2022-09-15T02:31:29.871Z,0.00
2022-09-15T02:32:29.753Z,0.00
2022-09-15T02:33:29.765Z,0.00
2022-09-15T02:34:29.731Z,0.00
2022-09-15T02:35:29.728Z,0.00
2022-09-15T02:36:29.739Z,0.00
2022-09-15T02:37:29.724Z,0.00
2022-09-15T02:38:29.694Z,0.00
2022-09-15T02:39:30.320Z,0.00
2022-09-15T02:40:29.778Z,0.00
2022-09-15T02:41:29.693Z,0.00
2022-09-15T02:42:29.645Z,0.00
2022-09-15T02:43:29.795Z,0.00
2022-09-15T02:44:29.629Z,0.00
2022-09-15T02:45:29.694Z,0.00
2022-09-15T02:46:29.612Z,0.00
2022-09-15T02:47:29.591Z,0.00
2022-09-15T02:48:29.586Z,0.00
2022-09-15T02:49:29.665Z,0.00
2022-09-15T02:50:29.556Z,0.00
2022-09-15T02:51:29.561Z,0.00
2022-09-15T02:52:29.545Z,0.00
2022-09-15T02:53:29.525Z,0.00
2022-09-15T02:54:29.516Z,0.00
2022-09-15T02:55:29.501Z,0.00
2022-09-15T02:56:29.490Z,0.00
2022-09-15T02:57:29.497Z,0.00
2022-09-15T02:58:29.475Z,0.00
2022-09-15T02:59:29.462Z,0.00
2022-09-15T03:00:29.516Z,0.00
2022-09-15T03:01:30.148Z,0.00
2022-09-15T03:02:29.907Z,0.00
2022-09-15T03:03:29.416Z,0.00
2022-09-15T03:04:29.405Z,0.00
2022-09-15T03:05:29.407Z,0.00
2022-09-15T03:06:29.390Z,0.00
2022-09-15T03:07:29.399Z,0.00
2022-09-15T03:08:29.401Z,0.00
2022-09-15T03:09:29.350Z,0.00
2022-09-15T03:10:29.336Z,0.00
2022-09-15T03:11:29.346Z,0.00
2022-09-15T03:12:29.317Z,0.00
2022-09-15T03:13:29.375Z,0.00
2022-09-15T03:14:29.288Z,0.00
2022-09-15T03:15:29.288Z,0.00
2022-09-15T03:16:29.362Z,0.00
2022-09-15T03:17:29.469Z,0.00
2022-09-15T03:18:29.278Z,0.00
2022-09-15T03:19:29.275Z,0.00
2022-09-15T03:20:29.223Z,0.00
2022-09-15T03:21:29.262Z,0.00
2022-09-15T03:22:29.291Z,0.00
2022-09-15T03:23:29.224Z,0.00
2022-09-15T03:24:29.218Z,0.00
2022-09-15T03:25:29.217Z,0.00
2022-09-15T03:26:29.158Z,0.00
2022-09-15T03:27:29.242Z,0.00
2022-09-15T03:28:29.159Z,0.00
2022-09-15T03:29:29.161Z,0.00
2022-09-15T03:30:29.157Z,0.00
2022-09-15T03:31:29.178Z,0.00
2022-09-15T03:32:29.101Z,0.00
2022-09-15T03:33:29.101Z,0.00
2022-09-15T03:34:29.088Z,0.00
2022-09-15T03:35:29.099Z,0.00
2022-09-15T03:36:29.090Z,0.00
2022-09-15T03:37:29.053Z,0.00
2022-09-15T03:38:29.116Z,0.00
2022-09-15T03:39:29.010Z,0.00
2022-09-15T03:40:29.059Z,0.00
2022-09-15T03:41:29.019Z,0.00
2022-09-15T03:42:28.976Z,0.00
2022-09-15T03:43:28.971Z,0.00
2022-09-15T03:44:28.960Z,0.00
2022-09-15T03:45:28.981Z,0.00
2022-09-15T03:46:28.930Z,0.00
2022-09-15T03:47:28.934Z,0.00
2022-09-15T03:48:28.911Z,0.00
2022-09-15T03:49:28.921Z,0.00
2022-09-15T03:50:28.908Z,0.00
2022-09-15T03:51:28.879Z,0.00
2022-09-15T03:52:28.864Z,0.00
2022-09-15T03:53:29.861Z,0.00
2022-09-15T03:54:28.843Z,0.00
2022-09-15T03:55:28.934Z,0.00
2022-09-15T03:56:28.816Z,0.00
2022-09-15T03:57:28.812Z,0.00
2022-09-15T03:58:30.798Z,0.00
2022-09-15T03:59:28.794Z,0.00
2022-09-15T04:00:28.837Z,0.00
2022-09-15T04:01:28.768Z,0.00
2022-09-15T04:02:28.774Z,0.00
2022-09-15T04:03:28.745Z,0.00
2022-09-15T04:04:28.735Z,0.00
2022-09-15T04:05:28.737Z,0.00
2022-09-15T04:06:28.746Z,0.00
2022-09-15T04:07:35.732Z,0.00
2022-09-15T04:08:28.690Z,4.00
2022-09-15T04:09:28.707Z,4.00
2022-09-15T04:10:28.707Z,4.00
2022-09-15T04:11:28.655Z,4.00
2022-09-15T04:12:28.900Z,4.00
2022-09-15T04:13:28.881Z,8.00
2022-09-15T04:14:28.665Z,4.00
2022-09-15T04:15:28.632Z,8.00
2022-09-15T04:16:28.692Z,8.00
2022-09-15T04:17:28.592Z,8.00
2022-09-15T04:18:28.576Z,12.00
2022-09-15T04:19:28.573Z,12.00
2022-09-15T04:20:28.564Z,16.00
2022-09-15T04:21:28.578Z,16.00
2022-09-15T04:22:28.553Z,24.00
2022-09-15T04:23:28.517Z,28.00
2022-09-15T04:24:28.521Z,28.00
2022-09-15T04:25:28.521Z,36.00
2022-09-15T04:26:32.410Z,44.00
2022-09-15T04:27:28.523Z,48.00
2022-09-15T04:28:28.464Z,56.00
2022-09-15T04:29:28.694Z,68.00
2022-09-15T04:30:28.477Z,72.00
2022-09-15T04:31:28.514Z,84.00
2022-09-15T04:32:29.483Z,96.00
2022-09-15T04:33:28.408Z,108.00
2022-09-15T04:34:28.400Z,120.00
2022-09-15T04:35:28.390Z,140.00
2022-09-15T04:36:28.531Z,156.00
2022-09-15T04:37:28.379Z,164.00
2022-09-15T04:38:28.364Z,172.00
2022-09-15T04:39:28.344Z,192.00
2022-09-15T04:40:28.441Z,212.00
2022-09-15T04:41:45.729Z,244.00
2022-09-15T04:42:28.310Z,272.00
2022-09-15T04:43:28.305Z,304.00
2022-09-15T04:44:28.282Z,332.00
2022-09-15T04:45:28.280Z,364.00
2022-09-15T04:46:28.383Z,392.00
2022-09-15T04:47:28.273Z,428.00
2022-09-15T04:48:28.251Z,456.00
2022-09-15T04:49:28.229Z,496.00
2022-09-15T04:50:28.216Z,528.00
2022-09-15T04:51:28.202Z,568.00
2022-09-15T04:52:28.217Z,604.00
2022-09-15T04:53:28.202Z,644.00
2022-09-15T04:54:28.175Z,688.00
2022-09-15T04:55:28.159Z,732.00
2022-09-15T04:56:28.191Z,772.00
2022-09-15T04:57:28.171Z,812.00
2022-09-15T04:58:28.125Z,856.00
2022-09-15T04:59:28.247Z,900.00
2022-09-15T05:00:28.117Z,944.00
2022-09-15T05:01:28.179Z,988.00
2022-09-15T05:02:30.144Z,1032.00
2022-09-15T05:03:28.098Z,1080.00
2022-09-15T05:04:28.077Z,1128.00
2022-09-15T05:05:28.342Z,1172.00
2022-09-15T05:06:28.040Z,1216.00
2022-09-15T05:07:28.050Z,1264.00
2022-09-15T05:08:28.016Z,1312.00
2022-09-15T05:09:28.005Z,1372.00
2022-09-15T05:10:28.001Z,1540.00
2022-09-15T05:11:27.983Z,1544.00
2022-09-15T05:12:27.969Z,1580.00
2022-09-15T05:13:28.159Z,1580.00
2022-09-15T05:14:27.952Z,1576.00
2022-09-15T05:15:27.935Z,1624.00
2022-09-15T05:16:28.980Z,1716.00
2022-09-15T05:17:27.910Z,1852.00
2022-09-15T05:18:27.919Z,1964.00
2022-09-15T05:19:27.890Z,2052.00
2022-09-15T05:20:27.973Z,2112.00
2022-09-15T05:21:27.875Z,2148.00
2022-09-15T05:22:27.928Z,2172.00
2022-09-15T05:23:27.845Z,2208.00
2022-09-15T05:24:27.833Z,2260.00
2022-09-15T05:25:27.821Z,2316.00
2022-09-15T05:26:27.811Z,2384.00
2022-09-15T05:27:27.821Z,2464.00
2022-09-15T05:28:27.830Z,2528.00
2022-09-15T05:29:27.895Z,2592.00
2022-09-15T05:30:44.557Z,2672.00
2022-09-15T05:31:28.866Z,2752.00
2022-09-15T05:32:27.772Z,2876.00
2022-09-15T05:33:27.780Z,3020.00
2022-09-15T05:34:27.729Z,3140.00
2022-09-15T05:35:27.709Z,3204.00
2022-09-15T05:36:27.704Z,3204.00
2022-09-15T05:37:27.725Z,3212.00
2022-09-15T05:38:27.682Z,3268.00
2022-09-15T05:39:27.729Z,3376.00
2022-09-15T05:40:27.685Z,3548.00
2022-09-15T05:41:27.656Z,3828.00
2022-09-15T05:42:27.658Z,4100.00
2022-09-15T05:43:27.648Z,4096.00
2022-09-15T05:44:27.610Z,4344.00
2022-09-15T05:45:27.637Z,4888.00
2022-09-15T05:46:27.701Z,4952.00
2022-09-15T05:47:27.595Z,5164.00
2022-09-15T05:48:27.571Z,5508.00
2022-09-15T05:49:28.399Z,5680.00
2022-09-15T05:50:27.570Z,5820.00
2022-09-15T05:51:27.537Z,5988.00
2022-09-15T05:52:27.550Z,6152.00
2022-09-15T05:53:27.510Z,6276.00
2022-09-15T05:54:28.373Z,6344.00
2022-09-15T05:55:27.485Z,6308.00
2022-09-15T05:56:27.535Z,6648.00
2022-09-15T05:57:27.529Z,6884.00
2022-09-15T05:58:27.458Z,7244.00
2022-09-15T05:59:27.448Z,7480.00
2022-09-15T06:00:27.521Z,7828.00
2022-09-15T06:01:27.602Z,8152.00
2022-09-15T06:02:27.454Z,8636.00
2022-09-15T06:03:30.855Z,9320.00
2022-09-15T06:04:27.399Z,10120.00
2022-09-15T06:05:27.498Z,11528.00
2022-09-15T06:06:27.373Z,13088.00
2022-09-15T06:07:27.842Z,13920.00
2022-09-15T06:08:27.361Z,12896.00
2022-09-15T06:09:27.333Z,10552.00
2022-09-15T06:10:27.371Z,8048.00
2022-09-15T06:11:27.612Z,7512.00
2022-09-15T06:12:27.296Z,12028.00
2022-09-15T06:13:27.302Z,13216.00
2022-09-15T06:14:27.283Z,7000.00
2022-09-15T06:15:27.262Z,5736.00
2022-09-15T06:16:27.411Z,5840.00
2022-09-15T06:17:27.257Z,5988.00
2022-09-15T06:18:27.234Z,9928.00
2022-09-15T06:19:27.286Z,9072.00
2022-09-15T06:20:27.406Z,7316.00
2022-09-15T06:21:27.219Z,7828.00
2022-09-15T06:22:27.232Z,9676.00
2022-09-15T06:23:27.182Z,13036.00
2022-09-15T06:24:27.196Z,19360.00
2022-09-15T06:25:27.199Z,19136.00
2022-09-15T06:26:27.181Z,10836.00
2022-09-15T06:27:27.151Z,20544.00
2022-09-15T06:28:27.444Z,22912.00
2022-09-15T06:29:27.109Z,22592.00
2022-09-15T06:30:27.122Z,8624.00
2022-09-15T06:31:27.172Z,8432.00
2022-09-15T06:32:27.079Z,9072.00
2022-09-15T06:33:27.102Z,20704.00
2022-09-15T06:34:27.064Z,12704.00
2022-09-15T06:35:27.044Z,13064.00
2022-09-15T06:36:27.035Z,27584.00
2022-09-15T06:37:27.020Z,12840.00
2022-09-15T06:38:27.440Z,12708.00
2022-09-15T06:39:27.015Z,14752.00
2022-09-15T06:40:27.272Z,12016.00
2022-09-15T06:41:27.220Z,11160.00
2022-09-15T06:42:26.960Z,10124.00
2022-09-15T06:43:26.965Z,10100.00
2022-09-15T06:44:26.935Z,10540.00
2022-09-15T06:45:26.928Z,10088.00
2022-09-15T06:46:27.039Z,10672.00
2022-09-15T06:47:26.977Z,10940.00
2022-09-15T06:48:27.438Z,10944.00
2022-09-15T06:49:27.388Z,13320.00
2022-09-15T06:50:27.432Z,14300.00
2022-09-15T06:51:27.049Z,13000.00
2022-09-15T06:52:26.847Z,11608.00
2022-09-15T06:53:29.859Z,10904.00
2022-09-15T06:54:26.843Z,10928.00
2022-09-15T06:55:26.810Z,19968.00
2022-09-15T06:56:26.804Z,24512.00
2022-09-15T06:57:26.792Z,14332.00
2022-09-15T06:58:26.796Z,13840.00
2022-09-15T06:59:26.768Z,13516.00
2022-09-15T07:00:26.965Z,12128.00
2022-09-15T07:01:26.742Z,12692.00
2022-09-15T07:02:26.961Z,14576.00
2022-09-15T07:03:26.946Z,15680.00
2022-09-15T07:04:26.734Z,26016.00
2022-09-15T07:05:26.715Z,15256.00
2022-09-15T07:06:27.422Z,22976.00
2022-09-15T07:07:26.700Z,48480.00
2022-09-15T07:08:26.665Z,16928.00
2022-09-15T07:09:26.663Z,15936.00
2022-09-15T07:10:26.687Z,14960.00
2022-09-15T07:11:26.643Z,15904.00
2022-09-15T07:12:26.640Z,14984.00
2022-09-15T07:13:26.608Z,14336.00
2022-09-15T07:14:26.664Z,14752.00
2022-09-15T07:15:26.586Z,13300.00
2022-09-15T07:16:26.678Z,12896.00
2022-09-15T07:17:26.577Z,13132.00
2022-09-15T07:18:26.552Z,12940.00
2022-09-15T07:19:26.586Z,13268.00
2022-09-15T07:20:26.532Z,14880.00
2022-09-15T07:21:26.537Z,14332.00
2022-09-15T07:22:26.507Z,20128.00
2022-09-15T07:23:26.971Z,16128.00
2022-09-15T07:24:26.504Z,16096.00
2022-09-15T07:25:26.501Z,16992.00
2022-09-15T07:26:26.460Z,46976.00
2022-09-15T07:27:26.453Z,19456.00
2022-09-15T07:28:26.443Z,15968.00
2022-09-15T07:29:26.446Z,13172.00
2022-09-15T07:30:26.420Z,13368.00
2022-09-15T07:31:26.456Z,14640.00
2022-09-15T07:32:26.399Z,12672.00
2022-09-15T07:33:26.384Z,13772.00
2022-09-15T07:34:26.461Z,15872.00
2022-09-15T07:35:26.364Z,51840.00
2022-09-15T07:36:26.367Z,15840.00
2022-09-15T07:37:26.355Z,16032.00
2022-09-15T07:38:26.345Z,16160.00
2022-09-15T07:39:26.343Z,16096.00
2022-09-15T07:40:26.574Z,17408.00
2022-09-15T07:41:26.299Z,13808.00
2022-09-15T07:42:26.294Z,12732.00
2022-09-15T07:43:26.935Z,13136.00
2022-09-15T07:44:26.292Z,16192.00
2022-09-15T07:45:26.278Z,12380.00
2022-09-15T07:46:26.274Z,11776.00
2022-09-15T07:47:26.229Z,12000.00
2022-09-15T07:48:26.702Z,12920.00
2022-09-15T07:49:26.221Z,13692.00
2022-09-15T07:50:26.194Z,23840.00
2022-09-15T07:51:26.323Z,14404.00
2022-09-15T07:52:26.944Z,14004.00
2022-09-15T07:53:26.180Z,14664.00
2022-09-15T07:54:26.171Z,15020.00
2022-09-15T07:55:26.139Z,14756.00
2022-09-15T07:56:26.128Z,15520.00
2022-09-15T07:57:26.284Z,15548.00
2022-09-15T07:58:26.108Z,14644.00
2022-09-15T07:59:29.030Z,14720.00
2022-09-15T08:00:26.130Z,15020.00
2022-09-15T08:01:26.156Z,14968.00
2022-09-15T08:02:26.125Z,14940.00
2022-09-15T08:03:26.049Z,13824.00
2022-09-15T08:04:26.051Z,14916.00
2022-09-15T08:05:26.030Z,15364.00
2022-09-15T08:06:26.016Z,14832.00
2022-09-15T08:07:26.002Z,36704.00
2022-09-15T08:08:26.111Z,13364.00
2022-09-15T08:09:26.041Z,13936.00
2022-09-15T08:10:25.973Z,13696.00
2022-09-15T08:11:25.968Z,11756.00
2022-09-15T08:12:25.952Z,15324.00
2022-09-15T08:13:25.943Z,16800.00
2022-09-15T08:14:25.999Z,19264.00
2022-09-15T08:15:25.944Z,21216.00
2022-09-15T08:16:25.962Z,32640.00
2022-09-15T08:17:25.893Z,21472.00
2022-09-15T08:18:25.886Z,23584.00
2022-09-15T08:19:25.888Z,22400.00
2022-09-15T08:20:25.862Z,24352.00
2022-09-15T08:21:25.856Z,25056.00
2022-09-15T08:22:25.844Z,28000.00
2022-09-15T08:23:25.828Z,27232.00
2022-09-15T08:24:25.902Z,26432.00
2022-09-15T08:25:26.067Z,24416.00
2022-09-15T08:26:25.798Z,22400.00
2022-09-15T08:27:25.804Z,24288.00
2022-09-15T08:28:25.772Z,25632.00
2022-09-15T08:29:26.117Z,24416.00
2022-09-15T08:30:25.795Z,24288.00
2022-09-15T08:31:26.024Z,27840.00
2022-09-15T08:32:25.734Z,20544.00
2022-09-15T08:33:25.730Z,19360.00
2022-09-15T08:34:25.783Z,19296.00
2022-09-15T08:35:25.692Z,18560.00
2022-09-15T08:36:25.694Z,19040.00
2022-09-15T08:37:25.675Z,23552.00
2022-09-15T08:38:25.685Z,24992.00
2022-09-15T08:39:25.674Z,32224.00
2022-09-15T08:40:25.924Z,23488.00
2022-09-15T08:41:25.650Z,25312.00
2022-09-15T08:42:25.737Z,26880.00
2022-09-15T08:43:25.608Z,28480.00
2022-09-15T08:44:26.073Z,36672.00
2022-09-15T08:45:25.654Z,35296.00
2022-09-15T08:46:25.654Z,30528.00
2022-09-15T08:47:25.566Z,28192.00
2022-09-15T08:48:25.674Z,28480.00
2022-09-15T08:49:47.442Z,40000.00
2022-09-15T08:50:26.533Z,39136.00
2022-09-15T08:51:25.516Z,26400.00
2022-09-15T08:52:25.502Z,25152.00
2022-09-15T08:53:25.493Z,18880.00
2022-09-15T08:54:25.497Z,18432.00
2022-09-15T08:55:25.492Z,18624.00
2022-09-15T08:56:25.472Z,17088.00
2022-09-15T08:57:25.473Z,16352.00
2022-09-15T08:58:25.436Z,15836.00
2022-09-15T08:59:25.443Z,18784.00
2022-09-15T09:00:25.434Z,20192.00
2022-09-15T09:01:25.601Z,19648.00
2022-09-15T09:02:25.410Z,18848.00
2022-09-15T09:03:25.385Z,18016.00
2022-09-15T09:04:25.398Z,16288.00
2022-09-15T09:05:28.037Z,14768.00
2022-09-15T09:06:25.354Z,13912.00
2022-09-15T09:07:25.550Z,14192.00
2022-09-15T09:08:25.321Z,14804.00
2022-09-15T09:09:25.338Z,15360.00
2022-09-15T09:10:25.336Z,15176.00
2022-09-15T09:11:25.331Z,14804.00
2022-09-15T09:12:25.340Z,15220.00
2022-09-15T09:13:25.505Z,15696.00
2022-09-15T09:14:25.261Z,16672.00
2022-09-15T09:15:25.339Z,17376.00
2022-09-15T09:16:26.174Z,16160.00
2022-09-15T09:17:25.232Z,13296.00
2022-09-15T09:18:25.966Z,10688.00
2022-09-15T09:19:27.139Z,9388.00
2022-09-15T09:20:25.533Z,9464.00
2022-09-15T09:21:25.184Z,10448.00
2022-09-15T09:22:25.180Z,11068.00
2022-09-15T09:23:25.158Z,11056.00
2022-09-15T09:24:25.171Z,10464.00
2022-09-15T09:25:27.921Z,10820.00
2022-09-15T09:26:25.165Z,11908.00
2022-09-15T09:27:25.115Z,12632.00
2022-09-15T09:28:25.103Z,14028.00
2022-09-15T09:29:25.219Z,15416.00
2022-09-15T09:30:25.092Z,16608.00
2022-09-15T09:31:25.165Z,17696.00
2022-09-15T09:32:25.213Z,19200.00
2022-09-15T09:33:25.048Z,20384.00
2022-09-15T09:34:25.037Z,22336.00
2022-09-15T09:35:25.038Z,27616.00
2022-09-15T09:36:25.054Z,25792.00
2022-09-15T09:37:25.170Z,25952.00
2022-09-15T09:38:25.975Z,28384.00
2022-09-15T09:39:24.994Z,30272.00
2022-09-15T09:40:24.990Z,31456.00
2022-09-15T09:41:24.982Z,27968.00
2022-09-15T09:42:24.979Z,28640.00
2022-09-15T09:43:25.054Z,28320.00
2022-09-15T09:44:24.938Z,29152.00
2022-09-15T09:45:24.927Z,29728.00
2022-09-15T09:46:24.975Z,29504.00
2022-09-15T09:47:24.907Z,30368.00
2022-09-15T09:48:24.879Z,31776.00
2022-09-15T09:49:24.887Z,26752.00
2022-09-15T09:50:24.856Z,26432.00
2022-09-15T09:51:24.850Z,30080.00
2022-09-15T09:52:24.886Z,37216.00
2022-09-15T09:53:24.822Z,32128.00
2022-09-15T09:54:31.649Z,29600.00
2022-09-15T09:55:24.807Z,29728.00
2022-09-15T09:56:25.481Z,30112.00
2022-09-15T09:57:24.779Z,34240.00
2022-09-15T09:58:24.764Z,36000.00
2022-09-15T09:59:24.799Z,38080.00
2022-09-15T10:00:24.745Z,36064.00
2022-09-15T10:01:24.926Z,34688.00
2022-09-15T10:02:24.790Z,54784.00
2022-09-15T10:03:27.094Z,41856.00
2022-09-15T10:04:25.898Z,34048.00
2022-09-15T10:05:24.717Z,36288.00
2022-09-15T10:06:24.678Z,32832.00
2022-09-15T10:07:24.665Z,31840.00
2022-09-15T10:08:24.655Z,37696.00
2022-09-15T10:09:24.641Z,42976.00
2022-09-15T10:10:24.650Z,46464.00
2022-09-15T10:11:24.624Z,47424.00
2022-09-15T10:12:24.605Z,44608.00
2022-09-15T10:13:24.797Z,28384.00
2022-09-15T10:14:24.621Z,50112.00
2022-09-15T10:15:24.579Z,49056.00
2022-09-15T10:16:24.636Z,51744.00
2022-09-15T10:17:24.576Z,63200.00
2022-09-15T10:18:24.572Z,103136.00
2022-09-15T10:19:24.629Z,37248.00
2022-09-15T10:20:24.527Z,27552.00
2022-09-15T10:21:24.514Z,22336.00
2022-09-15T10:22:24.500Z,23328.00
2022-09-15T10:23:24.507Z,29088.00
2022-09-15T10:24:24.473Z,28864.00
2022-09-15T10:25:25.921Z,24320.00
2022-09-15T10:26:25.461Z,19680.00
2022-09-15T10:27:24.449Z,16256.00
2022-09-15T10:28:24.451Z,13600.00
2022-09-15T10:29:24.433Z,15648.00
2022-09-15T10:30:24.998Z,19232.00
2022-09-15T10:31:24.462Z,18016.00
2022-09-15T10:32:25.419Z,17216.00
2022-09-15T10:33:24.433Z,18624.00
2022-09-15T10:34:24.406Z,23488.00
2022-09-15T10:35:24.365Z,32896.00
2022-09-15T10:36:24.354Z,28416.00
2022-09-15T10:37:24.345Z,25728.00
2022-09-15T10:38:24.371Z,26432.00
2022-09-15T10:39:24.318Z,22848.00
2022-09-15T10:40:24.400Z,21920.00
2022-09-15T10:41:24.293Z,23072.00
2022-09-15T10:42:24.316Z,65280.00
2022-09-15T10:43:24.279Z,107520.00
2022-09-15T10:44:24.275Z,101024.00
2022-09-15T10:45:24.326Z,29184.00
2022-09-15T10:46:24.239Z,24480.00
2022-09-15T10:47:25.011Z,60448.00
2022-09-15T10:48:24.217Z,100288.00
2022-09-15T10:49:24.249Z,26080.00
2022-09-15T10:50:24.196Z,87872.00
2022-09-15T10:51:24.193Z,23520.00
2022-09-15T10:52:24.169Z,24384.00
2022-09-15T10:53:24.187Z,85600.00
2022-09-15T10:54:24.349Z,81664.00
2022-09-15T10:55:42.163Z,77888.00
2022-09-15T10:56:25.124Z,36512.00
2022-09-15T10:57:24.162Z,73376.00
2022-09-15T10:58:24.103Z,38272.00
2022-09-15T10:59:24.097Z,72032.00
2022-09-15T11:00:24.108Z,26368.00
2022-09-15T11:01:24.145Z,23200.00
2022-09-15T11:02:24.153Z,19360.00
2022-09-15T11:03:24.063Z,16192.00
2022-09-15T11:04:24.237Z,15240.00
2022-09-15T11:05:24.045Z,15352.00
2022-09-15T11:06:24.049Z,15936.00
2022-09-15T11:07:24.010Z,16416.00
2022-09-15T11:08:24.006Z,16160.00
2022-09-15T11:09:23.983Z,16768.00
2022-09-15T11:10:24.389Z,18048.00
2022-09-15T11:11:23.967Z,20160.00
2022-09-15T11:12:28.945Z,21952.00
2022-09-15T11:13:24.945Z,20576.00
2022-09-15T11:14:23.927Z,18208.00
2022-09-15T11:15:23.959Z,51168.00
2022-09-15T11:16:23.956Z,13568.00
2022-09-15T11:17:23.902Z,11780.00
2022-09-15T11:18:23.880Z,11580.00
2022-09-15T11:19:23.892Z,12748.00
2022-09-15T11:20:23.869Z,18080.00
2022-09-15T11:21:23.931Z,59136.00
2022-09-15T11:22:23.851Z,25152.00
2022-09-15T11:23:24.038Z,23136.00
2022-09-15T11:24:23.839Z,22368.00
2022-09-15T11:25:23.809Z,25504.00
2022-09-15T11:26:23.799Z,32608.00
2022-09-15T11:27:23.796Z,51392.00
2022-09-15T11:28:23.775Z,57088.00
2022-09-15T11:29:23.866Z,56320.00
2022-09-15T11:30:23.752Z,47648.00
2022-09-15T11:31:23.807Z,38176.00
2022-09-15T11:32:23.733Z,34208.00
2022-09-15T11:33:23.741Z,20576.00
2022-09-15T11:34:23.711Z,17696.00
2022-09-15T11:35:23.718Z,18016.00
2022-09-15T11:36:23.689Z,56000.00
2022-09-15T11:37:23.698Z,27392.00
2022-09-15T11:38:23.781Z,27072.00
2022-09-15T11:39:23.676Z,30208.00
2022-09-15T11:40:23.742Z,29280.00
2022-09-15T11:41:23.640Z,56960.00
2022-09-15T11:42:23.627Z,60960.00
2022-09-15T11:43:23.653Z,67680.00
2022-09-15T11:44:23.891Z,17184.00
2022-09-15T11:45:23.605Z,16352.00
2022-09-15T11:46:23.643Z,21280.00
2022-09-15T11:47:23.577Z,18880.00
2022-09-15T11:48:23.556Z,17312.00
2022-09-15T11:49:23.618Z,14012.00
2022-09-15T11:50:23.673Z,10180.00
2022-09-15T11:51:23.630Z,8572.00
2022-09-15T11:52:23.536Z,7100.00
2022-09-15T11:53:23.526Z,5208.00
2022-09-15T11:54:23.489Z,4180.00
2022-09-15T11:55:23.555Z,3752.00
2022-09-15T11:56:23.469Z,3488.00
2022-09-15T11:57:23.479Z,3276.00
2022-09-15T11:58:23.445Z,3444.00
2022-09-15T11:59:23.441Z,3816.00
2022-09-15T12:00:23.442Z,4060.00
2022-09-15T12:01:23.583Z,4412.00
2022-09-15T12:02:23.532Z,4872.00
2022-09-15T12:03:23.514Z,5920.00
2022-09-15T12:04:23.377Z,6272.00
2022-09-15T12:05:23.562Z,6616.00
2022-09-15T12:06:23.387Z,7760.00
2022-09-15T12:07:23.350Z,9088.00
2022-09-15T12:08:23.337Z,10804.00
2022-09-15T12:09:23.346Z,11360.00
2022-09-15T12:10:24.428Z,11800.00
2022-09-15T12:11:23.311Z,13524.00
2022-09-15T12:12:26.960Z,18176.00
2022-09-15T12:13:23.284Z,23520.00
2022-09-15T12:14:26.532Z,22624.00
2022-09-15T12:15:23.289Z,22848.00
2022-09-15T12:16:23.295Z,26464.00
2022-09-15T12:17:23.243Z,48960.00
2022-09-15T12:18:38.093Z,27040.00
2022-09-15T12:19:24.236Z,20288.00
2022-09-15T12:20:23.202Z,15628.00